LSZS/SMV METAR and TAF weather

Enter ICAO airport designator
Station Type Date Time Source
LSZS METAR 2021/08/04 19:20 UTC NOAA

LSZS 041920Z AUTO 17001KT 9999 RA FEW028 BKN050 08/08 Q1016


Station Type Date Time Source
LSZS Decoded METAR 2021/08/04 19:20 UTC NOAA

Station name not available
Aug 04, 2021 - 03:20 PM EDT / 2021.08.04 1920 UTC
Wind: from the S (170 degrees) at 1 MPH (1 KT):0
Visibility: greater than 7 mile(s):0
Sky conditions: mostly cloudy
Weather: rain
Temperature: 46 F (8 C)
Dew Point: 46 F (8 C)
Relative Humidity: 100%
Pressure (altimeter): 30.00 in. Hg (1016 hPa)
ob: LSZS 041920Z AUTO 17001KT 9999 RA FEW028 BKN050 08/08 Q1016
cycle: 19

Station Type Date Time Source
LSZS TAF 2014/12/22 20:03 UTC NOAA

TAF
AMD LSZS 222054Z 2220/2224 CNL

Example: see airport list